createdAt,value
2023-03-08T00:02:57.962Z,40.68
2023-03-08T00:07:59.518Z,40.84
2023-03-08T00:13:01.044Z,40.60
2023-03-08T00:18:02.962Z,40.60
2023-03-08T00:23:04.541Z,40.53
2023-03-08T00:28:06.037Z,41.16
2023-03-08T00:33:07.563Z,40.89
2023-03-08T00:38:09.033Z,41.06
2023-03-08T00:43:10.607Z,40.86
2023-03-08T00:48:12.520Z,41.11
2023-03-08T00:53:14.586Z,40.65
2023-03-08T00:58:17.337Z,40.66
2023-03-08T01:03:20.150Z,40.37
2023-03-08T01:08:24.282Z,40.30
2023-03-08T01:13:32.449Z,40.68
2023-03-08T01:18:34.220Z,40.61
2023-03-08T01:23:35.958Z,40.58
2023-03-08T01:28:37.902Z,40.55
2023-03-08T01:33:42.149Z,40.33
2023-03-08T01:38:44.451Z,40.42
2023-03-08T01:43:46.846Z,40.16
2023-03-08T01:49:09.746Z,40.77
2023-03-08T01:54:17.439Z,40.74
2023-03-08T01:59:22.066Z,40.43
2023-03-08T02:04:23.873Z,40.53
2023-03-08T02:09:25.547Z,40.55
2023-03-08T02:14:28.820Z,40.11
2023-03-08T02:19:38.707Z,40.25
2023-03-08T02:24:40.384Z,40.47
2023-03-08T02:29:41.938Z,40.42
2023-03-08T02:34:43.555Z,40.51
2023-03-08T02:39:45.049Z,40.38
2023-03-08T02:44:46.671Z,40.21
2023-03-08T02:49:48.239Z,40.32
2023-03-08T02:54:49.948Z,40.31
2023-03-08T02:59:51.637Z,40.17
2023-03-08T03:04:53.364Z,39.51
2023-03-08T03:09:55.166Z,39.93
2023-03-08T03:14:56.972Z,40.42
2023-03-08T03:19:58.801Z,39.91
2023-03-08T03:25:00.343Z,39.90
2023-03-08T03:30:02.075Z,40.28
2023-03-08T03:35:05.006Z,40.33
2023-03-08T03:40:07.487Z,40.02
2023-03-08T03:45:09.720Z,40.58
2023-03-08T03:50:12.406Z,40.10
2023-03-08T03:55:22.728Z,40.31
2023-03-08T04:00:24.584Z,40.34
2023-03-08T04:05:42.900Z,40.62
2023-03-08T04:10:45.814Z,40.57
2023-03-08T04:15:48.431Z,40.41
2023-03-08T04:20:50.266Z,40.85
2023-03-08T04:25:51.985Z,40.93
2023-03-08T04:30:54.854Z,40.76
2023-03-08T04:35:56.799Z,41.58
2023-03-08T04:41:06.197Z,41.59
2023-03-08T04:46:18.752Z,41.33
2023-03-08T04:51:22.394Z,41.95
2023-03-08T04:56:24.384Z,41.45
2023-03-08T05:01:26.983Z,41.74
2023-03-08T05:06:29.168Z,42.17
2023-03-08T05:11:32.481Z,41.64
2023-03-08T05:16:34.721Z,41.72
2023-03-08T05:21:37.876Z,42.25
2023-03-08T05:26:39.644Z,42.11
2023-03-08T05:31:45.382Z,42.36
2023-03-08T05:36:47.877Z,42.52
2023-03-08T05:41:49.588Z,42.05
2023-03-08T05:46:57.563Z,42.25
2023-03-08T05:51:59.179Z,42.40
2023-03-08T05:57:02.375Z,41.91
2023-03-08T06:02:05.193Z,42.12
2023-03-08T06:07:32.931Z,42.01
2023-03-08T06:12:41.017Z,41.88
2023-03-08T06:17:46.111Z,42.18
2023-03-08T06:22:51.528Z,42.48
2023-03-08T06:27:53.793Z,42.07
2023-03-08T06:33:01.596Z,42.72
2023-03-08T06:38:03.402Z,42.34
2023-03-08T06:43:06.425Z,41.88
2023-03-08T06:48:08.085Z,42.23
2023-03-08T06:53:10.882Z,42.61
2023-03-08T06:58:24.013Z,42.66
2023-03-08T07:03:26.989Z,42.63
2023-03-08T07:08:28.627Z,42.68
2023-03-08T07:13:30.160Z,43.09
2023-03-08T07:18:31.729Z,42.84
2023-03-08T07:23:33.307Z,42.63
2023-03-08T07:28:35.616Z,42.85
2023-03-08T07:33:37.129Z,42.61
2023-03-08T07:38:38.853Z,42.79
2023-03-08T07:43:40.353Z,43.53
2023-03-08T07:48:49.306Z,43.15
2023-03-08T07:53:52.319Z,43.06
2023-03-08T07:58:57.377Z,43.26
2023-03-08T08:04:00.365Z,43.62
2023-03-08T08:09:02.330Z,42.86
2023-03-08T08:14:04.338Z,43.33
2023-03-08T08:19:06.237Z,42.75
2023-03-08T08:24:08.704Z,43.38
2023-03-08T08:29:10.820Z,43.18
2023-03-08T08:34:12.393Z,43.37
2023-03-08T08:39:13.961Z,43.16
2023-03-08T08:44:15.525Z,43.60
2023-03-08T08:49:17.064Z,44.25
2023-03-08T08:54:18.833Z,44.30
2023-03-08T08:59:20.455Z,44.56
2023-03-08T09:04:22.107Z,44.20
2023-03-08T09:09:23.672Z,44.75
2023-03-08T09:14:25.784Z,45.48
2023-03-08T09:19:27.350Z,45.26
2023-03-08T09:24:28.916Z,45.60
2023-03-08T09:29:30.422Z,46.00
2023-03-08T09:34:32.144Z,46.24
2023-03-08T09:39:34.528Z,46.70
2023-03-08T09:45:01.335Z,47.47
2023-03-08T09:50:33.881Z,47.40
2023-03-08T09:55:38.354Z,47.90
2023-03-08T10:00:41.341Z,48.53
2023-03-08T10:06:00.464Z,47.99
2023-03-08T10:11:07.241Z,48.65
2023-03-08T10:16:25.894Z,48.74
2023-03-08T10:21:29.759Z,48.83
2023-03-08T10:26:31.727Z,49.22
2023-03-08T10:31:33.822Z,48.86
2023-03-08T10:36:46.302Z,49.04
2023-03-08T10:42:00.126Z,49.57
2023-03-08T10:47:04.690Z,48.97
2023-03-08T10:52:25.181Z,49.01
2023-03-08T10:57:27.547Z,49.04
2023-03-08T11:02:29.490Z,49.33
2023-03-08T11:07:33.234Z,49.17
2023-03-08T11:12:34.772Z,49.73
2023-03-08T11:17:39.459Z,49.62
2023-03-08T11:23:05.627Z,49.22
2023-03-08T11:28:14.744Z,50.48
2023-03-08T11:33:44.305Z,49.43
2023-03-08T11:39:11.804Z,49.91
2023-03-08T11:44:31.226Z,50.35
2023-03-08T11:49:51.126Z,49.83
2023-03-08T11:55:07.550Z,49.98
2023-03-08T12:00:28.091Z,50.07
2023-03-08T12:05:41.038Z,50.33
2023-03-08T12:10:49.933Z,50.45
2023-03-08T12:16:12.846Z,51.28
2023-03-08T12:21:38.734Z,51.10
2023-03-08T12:26:48.636Z,51.41
2023-03-08T12:31:51.687Z,51.63
2023-03-08T12:36:53.814Z,51.71
2023-03-08T12:42:10.671Z,52.28
2023-03-08T12:47:12.103Z,52.57
2023-03-08T12:52:19.562Z,52.07
2023-03-08T12:57:31.092Z,52.50
2023-03-08T13:02:34.755Z,53.02
2023-03-08T13:07:57.268Z,53.00
2023-03-08T13:13:18.494Z,53.06
2023-03-08T13:18:32.575Z,53.51
2023-03-08T13:23:40.874Z,53.18
2023-03-08T13:28:47.669Z,53.41
2023-03-08T13:33:55.151Z,53.08
2023-03-08T13:39:05.567Z,52.69
2023-03-08T13:44:28.180Z,53.58
2023-03-08T13:49:43.242Z,53.53
2023-03-08T13:54:49.081Z,53.61
2023-03-08T13:59:53.718Z,53.65
2023-03-08T14:04:56.717Z,53.83
2023-03-08T14:09:58.939Z,53.92
2023-03-08T14:15:04.545Z,53.94
2023-03-08T14:20:19.397Z,54.14
2023-03-08T14:25:31.985Z,54.13
2023-03-08T14:30:33.784Z,54.30
2023-03-08T14:35:45.256Z,54.08
2023-03-08T14:40:51.941Z,54.12
2023-03-08T14:46:00.781Z,54.09
2023-03-08T14:51:26.975Z,54.45
2023-03-08T14:56:30.411Z,54.52
2023-03-08T15:01:34.803Z,55.81
2023-03-08T15:06:39.808Z,55.87
2023-03-08T15:11:41.669Z,55.57
2023-03-08T15:16:43.346Z,57.07
2023-03-08T15:21:44.926Z,57.02
2023-03-08T15:26:46.569Z,56.80
2023-03-08T15:31:48.134Z,57.44
2023-03-08T15:36:50.695Z,57.63
2023-03-08T15:41:52.289Z,56.98
2023-03-08T15:46:54.330Z,56.73
2023-03-08T15:51:55.935Z,56.67
2023-03-08T15:56:58.443Z,56.51
2023-03-08T16:02:00.117Z,56.67
2023-03-08T16:07:01.774Z,56.52
2023-03-08T16:12:03.577Z,56.81
2023-03-08T16:17:05.767Z,57.09
2023-03-08T16:22:07.582Z,56.99
2023-03-08T16:27:09.162Z,56.86
2023-03-08T16:32:15.014Z,57.15
2023-03-08T16:37:20.871Z,56.98
2023-03-08T16:42:22.905Z,57.05
2023-03-08T16:47:26.384Z,57.12
2023-03-08T16:52:28.457Z,57.18
2023-03-08T16:57:29.987Z,57.56
2023-03-08T17:02:31.622Z,57.47
2023-03-08T17:07:33.202Z,57.34
2023-03-08T17:12:34.790Z,58.26
2023-03-08T17:17:39.493Z,58.07
2023-03-08T17:22:41.099Z,58.22
2023-03-08T17:27:42.600Z,58.05
2023-03-08T17:32:44.214Z,58.24
2023-03-08T17:37:45.873Z,58.01
2023-03-08T17:42:47.829Z,58.12
2023-03-08T17:47:49.431Z,58.49
2023-03-08T17:52:50.960Z,58.52
2023-03-08T17:57:52.795Z,58.66
2023-03-08T18:02:54.615Z,58.93
2023-03-08T18:07:56.298Z,58.59
2023-03-08T18:12:57.939Z,58.42
2023-03-08T18:17:59.503Z,58.59
2023-03-08T18:23:01.576Z,58.32
2023-03-08T18:28:03.224Z,59.15
2023-03-08T18:33:05.310Z,58.79
2023-03-08T18:38:07.034Z,58.83
2023-03-08T18:43:08.618Z,58.89
2023-03-08T18:48:10.432Z,58.87
2023-03-08T18:53:12.824Z,59.36
2023-03-08T18:58:14.354Z,59.87
2023-03-08T19:03:15.874Z,60.28
2023-03-08T19:08:17.560Z,60.46
2023-03-08T19:13:19.164Z,60.48
2023-03-08T19:18:20.744Z,59.79
2023-03-08T19:23:22.388Z,60.10
2023-03-08T19:28:24.101Z,60.33
2023-03-08T19:33:31.024Z,60.12
2023-03-08T19:38:33.593Z,60.19
2023-03-08T19:43:35.583Z,59.92
2023-03-08T19:48:37.826Z,59.71
2023-03-08T19:53:40.189Z,60.48
2023-03-08T19:58:41.962Z,60.99
2023-03-08T20:03:43.808Z,60.47
2023-03-08T20:08:46.710Z,61.25
2023-03-08T20:13:48.402Z,60.24
2023-03-08T20:18:50.323Z,60.28
2023-03-08T20:23:55.421Z,60.28
2023-03-08T20:28:58.018Z,60.54
2023-03-08T20:33:59.811Z,60.65
2023-03-08T20:39:01.633Z,60.53
2023-03-08T20:44:03.456Z,60.24
2023-03-08T20:49:05.006Z,60.28
2023-03-08T20:54:06.645Z,60.39
2023-03-08T20:59:08.274Z,60.24
2023-03-08T21:04:09.906Z,60.12
2023-03-08T21:09:11.565Z,60.13
2023-03-08T21:14:13.250Z,60.40
2023-03-08T21:19:14.817Z,60.17
2023-03-08T21:24:18.698Z,60.13
2023-03-08T21:29:21.532Z,60.00
2023-03-08T21:34:23.366Z,59.69
2023-03-08T21:39:27.000Z,60.50
2023-03-08T21:44:30.949Z,60.16
2023-03-08T21:49:36.430Z,60.50
2023-03-08T21:54:38.067Z,60.76
2023-03-08T21:59:39.678Z,60.84
2023-03-08T22:04:41.191Z,60.82
2023-03-08T22:09:42.885Z,61.08
2023-03-08T22:14:44.567Z,60.91
2023-03-08T22:19:46.147Z,61.07
2023-03-08T22:24:47.871Z,61.11
2023-03-08T22:29:49.960Z,62.08
2023-03-08T22:34:51.671Z,61.51
2023-03-08T22:39:53.309Z,61.84
2023-03-08T22:44:54.979Z,62.14
2023-03-08T22:49:56.599Z,62.35
2023-03-08T22:54:58.186Z,62.13
2023-03-08T22:59:59.882Z,62.12
2023-03-08T23:05:01.387Z,61.69
2023-03-08T23:10:04.347Z,62.04
2023-03-08T23:15:07.342Z,62.07
2023-03-08T23:20:10.772Z,61.97
2023-03-08T23:25:12.662Z,61.44
2023-03-08T23:30:15.414Z,61.10
2023-03-08T23:35:17.016Z,60.86
2023-03-08T23:40:18.671Z,60.42
2023-03-08T23:45:21.141Z,60.44
2023-03-08T23:50:22.708Z,60.41
2023-03-08T23:55:24.630Z,59.93
